Time;durP1;ratioP1;P1;durP2;ratioP2;P2;SDS_P1;SDS_P2;PMS_P1;PMS_P2;Temp;Humidity;BMP_temperature;BMP_pressure;BME280_temperature;BME280_humidity;BME280_pressure;Samples;Min_cycle;Max_cycle;Signal;HPM_P1;HPM_P2
2021/08/01 00:00:43;;;;;;;59.10;3.10;;;17.10;1.00;;;;;;4992420;28;20555;-75
2021/08/01 00:03:10;;;;;;;58.57;2.70;;;17.10;1.00;;;;;;4991969;28;20493;-75
2021/08/01 00:05:37;;;;;;;58.87;3.20;;;17.00;1.00;;;;;;4992396;28;20548;-76
2021/08/01 00:08:04;;;;;;;58.80;3.10;;;17.00;1.00;;;;;;4992711;28;20480;-76
2021/08/01 00:10:31;;;;;;;58.57;3.13;;;17.00;1.00;;;;;;4992453;28;20555;-75
2021/08/01 00:12:58;;;;;;;58.37;2.60;;;16.90;1.00;;;;;;4992335;28;20477;-75
2021/08/01 00:15:26;;;;;;;58.13;2.40;;;16.90;1.00;;;;;;4992556;28;20541;-75
2021/08/01 00:17:53;;;;;;;58.80;3.20;;;16.80;1.00;;;;;;4992171;28;21021;-75
2021/08/01 00:20:20;;;;;;;58.20;3.07;;;16.80;1.00;;;;;;4992263;28;20989;-76
2021/08/01 00:22:48;;;;;;;58.27;2.60;;;16.70;1.00;;;;;;4996062;28;20588;-75
2021/08/01 00:25:14;;;;;;;58.17;2.50;;;16.70;1.00;;;;;;4996484;28;20444;-75
2021/08/01 00:27:42;;;;;;;58.73;3.10;;;16.60;1.00;;;;;;4996091;28;20543;-76
2021/08/01 00:30:10;;;;;;;58.67;2.77;;;16.60;1.00;;;;;;4995513;28;20901;-76
2021/08/01 00:32:39;;;;;;;58.13;2.70;;;16.50;1.00;;;;;;4995452;28;20446;-76
2021/08/01 00:35:07;;;;;;;58.87;3.00;;;16.50;1.00;;;;;;4995507;28;21040;-75
2021/08/01 00:37:34;;;;;;;58.47;2.90;;;16.50;1.00;;;;;;4995990;28;20829;-76
2021/08/01 00:40:01;;;;;;;58.60;3.10;;;16.50;1.00;;;;;;4995558;28;20568;-76
2021/08/01 00:42:29;;;;;;;58.80;2.90;;;16.40;1.00;;;;;;4995399;28;20481;-75
2021/08/01 00:44:56;;;;;;;59.10;3.33;;;16.40;1.00;;;;;;4995827;28;21114;-75
2021/08/01 00:47:23;;;;;;;58.47;2.63;;;16.40;1.00;;;;;;4995810;28;20459;-75
2021/08/01 00:49:51;;;;;;;58.33;2.70;;;16.40;1.00;;;;;;4995110;28;20531;-75
2021/08/01 00:52:18;;;;;;;58.27;2.97;;;16.40;1.00;;;;;;4995782;28;20540;-75
2021/08/01 00:54:45;;;;;;;58.30;3.00;;;16.40;1.00;;;;;;4996046;28;20873;-74
2021/08/01 00:57:13;;;;;;;58.60;2.60;;;16.40;1.00;;;;;;4995851;28;20485;-75
2021/08/01 00:59:41;;;;;;;58.27;2.60;;;16.40;1.00;;;;;;4994800;28;20541;-75
2021/08/01 01:02:13;;;;;;;58.60;2.80;;;16.30;1.00;;;;;;4995143;28;20563;-75
2021/08/01 01:04:48;;;;;;;59.10;2.83;;;16.30;1.00;;;;;;4995231;28;20456;-75
2021/08/01 01:07:22;;;;;;;58.57;2.77;;;16.30;1.00;;;;;;4995821;28;20539;-75
2021/08/01 01:09:55;;;;;;;58.57;2.90;;;16.40;1.00;;;;;;4995229;28;20478;-75
2021/08/01 01:12:28;;;;;;;57.97;2.90;;;16.30;1.00;;;;;;4995548;28;20456;-75
2021/08/01 01:14:57;;;;;;;58.70;3.10;;;16.30;1.00;;;;;;4995776;28;20483;-75
2021/08/01 01:17:29;;;;;;;58.60;3.03;;;16.20;1.00;;;;;;4995568;28;20827;-75
2021/08/01 01:20:10;;;;;;;58.67;3.27;;;16.20;2.60;;;;;;4994736;28;20531;-75
2021/08/01 01:22:45;;;;;;;58.57;2.97;;;16.10;8.00;;;;;;4995624;28;20514;-75
2021/08/01 01:25:24;;;;;;;58.67;2.83;;;16.10;12.30;;;;;;4995454;28;20451;-75
2021/08/01 01:28:02;;;;;;;58.80;3.53;;;16.00;15.10;;;;;;4995498;28;20452;-75
2021/08/01 01:30:30;;;;;;;58.87;3.30;;;15.90;16.80;;;;;;4994677;28;20475;-75
2021/08/01 01:33:08;;;;;;;58.60;3.10;;;15.90;22.20;;;;;;4993915;28;20944;-75
2021/08/01 01:35:39;;;;;;;58.60;3.00;;;15.80;27.20;;;;;;4995013;28;20452;-75
2021/08/01 01:38:08;;;;;;;58.67;2.80;;;15.80;31.80;;;;;;4994809;28;20827;-75
2021/08/01 01:40:36;;;;;;;58.73;3.40;;;15.80;36.90;;;;;;4994355;28;20512;-75
2021/08/01 01:43:05;;;;;;;58.90;3.50;;;15.80;43.10;;;;;;4994666;28;20496;-74
2021/08/01 01:45:33;;;;;;;58.43;2.70;;;15.80;50.40;;;;;;4994614;28;20840;-74
2021/08/01 01:48:01;;;;;;;58.80;3.50;;;15.80;56.70;;;;;;4992963;28;20530;-75
2021/08/01 01:50:28;;;;;;;58.47;2.60;;;15.80;61.80;;;;;;4994652;28;20479;-74
2021/08/01 01:52:56;;;;;;;58.37;2.90;;;15.80;64.70;;;;;;4995193;28;20526;-74
2021/08/01 01:55:28;;;;;;;58.37;2.80;;;15.70;66.90;;;;;;4994756;28;20449;-74
2021/08/01 01:57:55;;;;;;;58.63;3.40;;;15.70;68.50;;;;;;4994954;28;20456;-74
2021/08/01 02:00:22;;;;;;;58.50;2.70;;;15.70;69.40;;;;;;4994026;28;20487;-74
2021/08/01 02:02:49;;;;;;;58.67;3.10;;;15.60;70.10;;;;;;4994459;28;20488;-74
2021/08/01 02:05:15;;;;;;;58.43;2.80;;;15.60;71.30;;;;;;4994598;28;20543;-74
2021/08/01 02:07:42;;;;;;;58.57;2.70;;;15.60;73.00;;;;;;4994599;28;20993;-74
2021/08/01 02:10:14;;;;;;;58.70;3.20;;;15.60;74.70;;;;;;4994359;28;20563;-73
2021/08/01 02:12:49;;;;;;;58.60;3.87;;;15.60;75.70;;;;;;4994563;28;20510;-74
2021/08/01 02:15:18;;;;;;;58.37;2.57;;;15.60;76.90;;;;;;4994443;28;20451;-73
2021/08/01 02:17:54;;;;;;;58.30;2.80;;;15.60;77.70;;;;;;4994485;28;20451;-73
2021/08/01 02:20:28;;;;;;;58.47;2.80;;;15.50;78.80;;;;;;4994002;28;20475;-73
2021/08/01 02:22:56;;;;;;;58.50;2.90;;;15.50;79.80;;;;;;4994505;28;20487;-72
2021/08/01 02:25:24;;;;;;;58.50;3.23;;;15.50;80.40;;;;;;4994503;28;20485;-72
2021/08/01 02:27:54;;;;;;;58.17;2.87;;;15.50;81.30;;;;;;4994256;28;20527;-72
2021/08/01 02:30:21;;;;;;;58.37;3.30;;;15.40;81.60;;;;;;4993655;28;20553;-73
2021/08/01 02:32:50;;;;;;;58.57;2.83;;;15.40;82.30;;;;;;4994279;28;20459;-72
2021/08/01 02:35:17;;;;;;;58.57;2.93;;;15.40;82.90;;;;;;4994412;28;20447;-72
2021/08/01 02:37:45;;;;;;;58.43;2.90;;;15.40;83.80;;;;;;4993986;28;20535;-72
2021/08/01 02:40:13;;;;;;;58.60;2.90;;;15.40;84.50;;;;;;4993674;28;20847;-72
2021/08/01 02:42:42;;;;;;;58.67;2.90;;;15.30;84.90;;;;;;4993668;28;20907;-73
2021/08/01 02:45:11;;;;;;;58.53;3.07;;;15.30;85.60;;;;;;4993636;28;20534;-72
2021/08/01 02:47:40;;;;;;;58.80;3.10;;;15.30;86.70;;;;;;4993976;28;20460;-72
2021/08/01 02:50:08;;;;;;;58.57;3.00;;;15.30;87.70;;;;;;4993805;28;20502;-72
2021/08/01 02:52:41;;;;;;;58.57;3.10;;;15.30;88.10;;;;;;4993935;28;21022;-72
2021/08/01 02:55:12;;;;;;;58.27;2.87;;;15.30;88.40;;;;;;4993797;28;20547;-72
2021/08/01 02:57:44;;;;;;;58.13;3.00;;;15.40;89.40;;;;;;4993898;28;20546;-72
2021/08/01 03:00:15;;;;;;;58.40;2.90;;;15.40;90.00;;;;;;4993506;28;20467;-72
2021/08/01 03:02:42;;;;;;;58.37;2.90;;;15.40;90.60;;;;;;4993385;28;20972;-72
2021/08/01 03:05:10;;;;;;;58.70;3.00;;;15.50;91.00;;;;;;4993541;28;20538;-71
2021/08/01 03:07:40;;;;;;;58.27;2.80;;;15.50;91.20;;;;;;4993521;28;20822;-72
2021/08/01 03:10:07;;;;;;;58.13;2.80;;;15.50;91.60;;;;;;4993024;28;20526;-71
2021/08/01 03:12:39;;;;;;;58.40;3.50;;;15.50;91.80;;;;;;4993468;28;20491;-72
2021/08/01 03:15:07;;;;;;;58.47;3.07;;;15.60;92.10;;;;;;4993460;28;20452;-73
2021/08/01 03:17:35;;;;;;;60.03;3.57;;;15.50;92.40;;;;;;4993340;28;20539;-72
2021/08/01 03:20:02;;;;;;;58.50;3.30;;;15.50;92.60;;;;;;4992904;28;20563;-73
2021/08/01 03:22:29;;;;;;;58.40;2.70;;;15.50;92.80;;;;;;4992965;28;20458;-72
2021/08/01 03:24:56;;;;;;;58.80;3.30;;;15.50;93.20;;;;;;4993271;28;20536;-73
2021/08/01 03:27:23;;;;;;;58.27;3.30;;;15.50;93.20;;;;;;4993241;28;20519;-71
2021/08/01 03:29:50;;;;;;;58.33;2.90;;;15.50;93.30;;;;;;4992838;28;20836;-72
2021/08/01 03:32:16;;;;;;;58.27;2.80;;;15.50;93.60;;;;;;4992964;28;20491;-73
2021/08/01 03:34:45;;;;;;;58.37;2.50;;;15.40;93.90;;;;;;4992944;28;20450;-73
2021/08/01 03:37:11;;;;;;;58.27;2.50;;;15.40;94.00;;;;;;4992968;28;20543;-73
2021/08/01 03:39:38;;;;;;;58.60;3.17;;;15.40;94.30;;;;;;4992802;28;20452;-73
2021/08/01 03:42:05;;;;;;;58.47;2.80;;;15.40;94.30;;;;;;4992717;28;20544;-72
2021/08/01 03:44:32;;;;;;;58.37;3.00;;;15.30;94.30;;;;;;4992751;28;20487;-73
2021/08/01 03:46:59;;;;;;;58.17;2.60;;;15.30;94.50;;;;;;4992951;28;20485;-72
2021/08/01 03:49:26;;;;;;;58.60;3.33;;;15.30;94.50;;;;;;4992489;28;20460;-72
2021/08/01 03:51:54;;;;;;;58.27;2.77;;;15.30;94.90;;;;;;4992838;28;20501;-73
2021/08/01 03:54:21;;;;;;;58.60;2.90;;;15.30;95.10;;;;;;4992851;28;20448;-73
2021/08/01 03:56:48;;;;;;;58.27;3.00;;;15.30;95.40;;;;;;4992457;28;20822;-72
2021/08/01 03:59:15;;;;;;;58.07;2.70;;;15.30;95.60;;;;;;4992487;28;20549;-72
2021/08/01 04:01:42;;;;;;;58.30;3.40;;;15.40;95.80;;;;;;4992546;28;20923;-71
2021/08/01 04:04:09;;;;;;;58.07;2.90;;;15.40;96.00;;;;;;4992374;28;20496;-72
2021/08/01 04:06:36;;;;;;;59.17;3.77;;;15.40;96.40;;;;;;4992707;28;20813;-71
2021/08/01 04:09:05;;;;;;;58.27;2.73;;;15.50;96.60;;;;;;4992313;28;20551;-72
2021/08/01 04:11:32;;;;;;;57.93;3.10;;;15.50;96.70;;;;;;4992421;28;20468;-72
2021/08/01 04:13:59;;;;;;;58.33;2.60;;;15.50;97.00;;;;;;4992374;28;20897;-72
2021/08/01 04:16:26;;;;;;;58.03;2.60;;;15.50;97.30;;;;;;4992280;28;20452;-72
2021/08/01 04:18:52;;;;;;;58.50;2.80;;;15.50;97.30;;;;;;4992569;28;20539;-71
2021/08/01 04:21:19;;;;;;;58.10;2.67;;;15.50;97.50;;;;;;4991966;28;20474;-72
2021/08/01 04:23:46;;;;;;;58.07;2.60;;;15.50;97.70;;;;;;4992352;28;21021;-72
2021/08/01 04:26:14;;;;;;;58.07;2.70;;;15.50;97.80;;;;;;4992372;28;20447;-72
2021/08/01 04:28:41;;;;;;;58.07;2.70;;;15.50;98.10;;;;;;4992287;28;20534;-72
2021/08/01 04:31:08;;;;;;;58.40;3.10;;;15.50;97.90;;;;;;4991800;28;20472;-72
2021/08/01 04:33:36;;;;;;;58.47;2.90;;;15.40;98.00;;;;;;4992200;28;20452;-72
2021/08/01 04:36:02;;;;;;;58.37;2.57;;;15.40;98.10;;;;;;4992530;28;20623;-72
2021/08/01 04:38:29;;;;;;;58.23;2.70;;;15.40;98.30;;;;;;4992357;28;20451;-73
2021/08/01 04:40:56;;;;;;;58.03;2.60;;;15.40;98.60;;;;;;4991880;28;20467;-73
2021/08/01 04:43:24;;;;;;;58.40;3.23;;;15.40;98.70;;;;;;4992120;28;20483;-71
2021/08/01 04:45:51;;;;;;;58.33;2.77;;;15.40;99.00;;;;;;4992006;28;20540;-72
2021/08/01 04:48:18;;;;;;;58.23;2.70;;;15.40;99.70;;;;;;4992176;28;20451;-72
2021/08/01 04:50:45;;;;;;;58.07;2.80;;;15.40;99.30;;;;;;4991935;28;20570;-72
2021/08/01 04:53:12;;;;;;;58.30;2.60;;;15.40;99.30;;;;;;4992124;28;20564;-72
2021/08/01 04:55:39;;;;;;;58.07;2.53;;;15.40;99.40;;;;;;4992025;28;21020;-73
2021/08/01 04:58:07;;;;;;;58.27;2.70;;;15.40;99.20;;;;;;4992102;28;20542;-72
2021/08/01 05:00:35;;;;;;;58.17;2.57;;;15.40;99.30;;;;;;4991946;28;20879;-73
2021/08/01 05:03:03;;;;;;;58.77;3.00;;;15.50;99.60;;;;;;4991928;28;20455;-72
2021/08/01 05:05:34;;;;;;;58.43;2.57;;;15.50;99.40;;;;;;4992186;28;20449;-71
2021/08/01 05:08:01;;;;;;;58.13;2.70;;;15.50;99.40;;;;;;4994227;28;20452;-73
2021/08/01 05:10:28;;;;;;;58.40;2.60;;;15.50;99.80;;;;;;4995253;28;20553;-73
2021/08/01 05:12:55;;;;;;;57.93;2.60;;;15.50;99.80;;;;;;4995396;28;20450;-73
2021/08/01 05:15:22;;;;;;;58.70;2.80;;;15.50;99.90;;;;;;4995479;28;20452;-72
2021/08/01 05:17:51;;;;;;;58.17;2.50;;;15.50;99.90;;;;;;4995760;28;20454;-73
2021/08/01 05:20:18;;;;;;;58.17;2.70;;;15.50;99.90;;;;;;4995522;28;20556;-73
2021/08/01 05:22:45;;;;;;;58.50;2.90;;;15.50;99.90;;;;;;4995430;28;20451;-73
2021/08/01 05:25:12;;;;;;;58.07;2.57;;;15.50;99.90;;;;;;4995157;28;20856;-73
2021/08/01 05:27:39;;;;;;;58.13;2.87;;;15.50;99.90;;;;;;4995819;28;20543;-72
2021/08/01 05:30:06;;;;;;;58.07;2.87;;;15.50;99.90;;;;;;4994970;28;20478;-73
2021/08/01 05:32:34;;;;;;;57.93;2.60;;;15.40;99.90;;;;;;4995249;28;21010;-73
2021/08/01 05:35:02;;;;;;;58.90;3.60;;;15.40;99.90;;;;;;4995213;28;20452;-72
2021/08/01 05:37:29;;;;;;;58.23;2.70;;;15.40;99.90;;;;;;4995119;28;20456;-72
2021/08/01 05:39:57;;;;;;;58.17;2.57;;;15.40;99.50;;;;;;4994603;28;20473;-73
2021/08/01 05:42:24;;;;;;;58.13;2.70;;;15.50;99.60;;;;;;4995261;28;20822;-73
2021/08/01 05:44:51;;;;;;;58.23;2.60;;;15.50;99.50;;;;;;4994949;28;20493;-72
2021/08/01 05:47:17;;;;;;;58.27;2.60;;;15.60;99.80;;;;;;4995085;28;20551;-72
2021/08/01 05:49:44;;;;;;;58.23;2.60;;;15.60;99.90;;;;;;4994846;28;20478;-73
2021/08/01 05:52:15;;;;;;;58.20;2.70;;;15.60;99.90;;;;;;4994832;28;20986;-73
2021/08/01 05:54:41;;;;;;;59.00;3.43;;;15.60;99.90;;;;;;4994756;28;20446;-73
2021/08/01 05:57:08;;;;;;;58.30;2.90;;;15.50;99.90;;;;;;4995007;28;20542;-73
2021/08/01 05:59:35;;;;;;;58.13;2.80;;;15.50;99.90;;;;;;4994522;28;20455;-72
2021/08/01 06:02:02;;;;;;;58.00;2.40;;;15.60;99.90;;;;;;4994650;28;20457;-73
2021/08/01 06:04:29;;;;;;;58.27;3.17;;;15.70;99.90;;;;;;4994699;28;20494;-73
2021/08/01 06:06:56;;;;;;;58.70;3.40;;;15.80;99.90;;;;;;4994450;28;20453;-73
2021/08/01 06:09:24;;;;;;;57.90;2.80;;;15.90;99.90;;;;;;4994304;28;20970;-73
2021/08/01 06:11:51;;;;;;;57.83;2.57;;;15.90;99.90;;;;;;4994438;28;21071;-73
2021/08/01 06:14:17;;;;;;;58.13;2.60;;;16.00;99.90;;;;;;4994426;28;20452;-72
2021/08/01 06:16:44;;;;;;;58.10;2.50;;;16.10;99.90;;;;;;4994451;28;20451;-73
2021/08/01 06:19:11;;;;;;;58.40;2.70;;;16.10;99.90;;;;;;4993609;28;20874;-73
2021/08/01 06:21:38;;;;;;;58.03;2.70;;;16.10;99.90;;;;;;4994070;28;20483;-73
2021/08/01 06:24:05;;;;;;;58.03;2.60;;;16.20;99.90;;;;;;4994424;28;20490;-73
2021/08/01 06:26:33;;;;;;;58.13;2.40;;;16.20;99.90;;;;;;4994604;28;20898;-73
2021/08/01 06:29:00;;;;;;;58.17;2.60;;;16.20;99.90;;;;;;4994418;28;20461;-73
2021/08/01 06:31:27;;;;;;;58.27;2.73;;;16.30;99.90;;;;;;4993845;28;20476;-73
2021/08/01 06:33:54;;;;;;;57.97;2.60;;;16.20;99.90;;;;;;4994021;28;20455;-72
2021/08/01 06:36:21;;;;;;;58.20;2.57;;;16.30;99.90;;;;;;4994342;28;20492;-73
2021/08/01 06:38:48;;;;;;;58.80;3.07;;;16.30;99.90;;;;;;4994084;28;20541;-73
2021/08/01 06:41:14;;;;;;;57.87;2.57;;;16.20;99.80;;;;;;4993806;28;20918;-73
2021/08/01 06:43:43;;;;;;;58.30;2.60;;;16.30;99.50;;;;;;4993758;28;20540;-73
2021/08/01 06:46:09;;;;;;;58.27;2.90;;;16.20;99.50;;;;;;4993858;28;20500;-74
2021/08/01 06:48:38;;;;;;;59.43;3.77;;;16.20;99.50;;;;;;4993671;28;20492;-72
2021/08/01 06:51:05;;;;;;;57.87;2.50;;;16.20;99.50;;;;;;4993496;28;20487;-73
2021/08/01 06:53:32;;;;;;;57.87;2.60;;;16.20;99.40;;;;;;4993940;28;20833;-73
2021/08/01 06:55:59;;;;;;;57.93;2.50;;;16.20;98.80;;;;;;4993721;28;20451;-73
2021/08/01 06:58:26;;;;;;;57.70;2.53;;;16.30;97.40;;;;;;4993664;28;20457;-74
2021/08/01 07:00:54;;;;;;;58.10;2.60;;;16.30;96.10;;;;;;4993485;28;20655;-73
2021/08/01 07:03:21;;;;;;;58.17;2.60;;;16.40;95.80;;;;;;4993261;28;20988;-73
2021/08/01 07:05:48;;;;;;;57.90;2.40;;;16.40;95.90;;;;;;4993374;28;20496;-74
2021/08/01 07:08:15;;;;;;;58.30;2.70;;;16.40;95.80;;;;;;4993247;28;20854;-72
2021/08/01 07:10:41;;;;;;;58.27;2.67;;;16.40;96.00;;;;;;4993277;28;20568;-74
2021/08/01 07:13:09;;;;;;;58.27;2.60;;;16.40;95.70;;;;;;4993437;28;21005;-74
2021/08/01 07:15:37;;;;;;;57.47;2.60;;;16.40;95.30;;;;;;4993242;28;20456;-73
2021/08/01 07:18:06;;;;;;;58.37;2.83;;;16.60;94.80;;;;;;4993406;28;20466;-74
2021/08/01 07:20:34;;;;;;;58.77;3.13;;;16.60;94.10;;;;;;4993028;28;20569;-72
2021/08/01 07:23:02;;;;;;;57.83;2.73;;;16.60;93.40;;;;;;4993288;28;20455;-73
2021/08/01 07:25:29;;;;;;;57.90;2.70;;;16.70;92.50;;;;;;4993051;28;20495;-73
2021/08/01 07:27:56;;;;;;;57.47;2.43;;;16.70;92.00;;;;;;4993023;28;20539;-72
2021/08/01 07:30:23;;;;;;;58.00;2.60;;;16.70;91.60;;;;;;4992011;28;20551;-73
2021/08/01 07:32:50;;;;;;;57.67;2.50;;;16.70;91.60;;;;;;4992854;28;20545;-73
2021/08/01 07:35:18;;;;;;;57.97;2.80;;;16.60;91.80;;;;;;4993095;28;20839;-74
2021/08/01 07:37:45;;;;;;;58.20;2.50;;;16.50;91.80;;;;;;4992986;28;20481;-73
2021/08/01 07:40:12;;;;;;;58.03;2.80;;;16.40;91.90;;;;;;4992649;28;20469;-73
2021/08/01 07:42:39;;;;;;;57.93;2.60;;;16.30;92.10;;;;;;4992820;28;20529;-74
2021/08/01 07:45:11;;;;;;;58.70;2.93;;;16.30;92.70;;;;;;4992899;28;20575;-74
2021/08/01 07:47:38;;;;;;;58.10;2.93;;;16.20;93.30;;;;;;4990380;28;20466;-77
2021/08/01 07:50:06;;;;;;;58.17;2.60;;;16.20;94.30;;;;;;4992321;28;20587;-75
2021/08/01 07:52:34;;;;;;;57.73;2.50;;;16.20;96.20;;;;;;4992761;28;20880;-76
2021/08/01 07:55:01;;;;;;;58.10;2.70;;;16.20;97.10;;;;;;4977611;28;20938;-76
2021/08/01 07:57:30;;;;;;;58.00;2.40;;;16.30;97.50;;;;;;4972725;28;20489;-74
2021/08/01 07:59:58;;;;;;;58.40;3.10;;;16.30;97.60;;;;;;4972338;28;20480;-75
2021/08/01 08:02:26;;;;;;;57.77;2.60;;;16.40;98.00;;;;;;4972868;28;20464;-76
2021/08/01 08:04:53;;;;;;;57.97;2.57;;;16.50;97.70;;;;;;4973121;28;20497;-76
2021/08/01 08:07:20;;;;;;;57.83;2.50;;;16.50;97.70;;;;;;4972532;28;20460;-76
2021/08/01 08:09:49;;;;;;;57.97;2.57;;;16.60;97.60;;;;;;4972224;28;20453;-76
2021/08/01 08:12:17;;;;;;;57.57;2.50;;;16.60;98.30;;;;;;4973160;28;20454;-76
2021/08/01 08:14:44;;;;;;;58.07;2.90;;;16.60;98.00;;;;;;4973139;28;20537;-76
2021/08/01 08:17:11;;;;;;;58.07;2.57;;;16.60;98.30;;;;;;4972872;28;20720;-76
2021/08/01 08:19:38;;;;;;;57.97;2.57;;;16.60;98.30;;;;;;4972844;28;20557;-76
2021/08/01 08:22:06;;;;;;;57.97;2.60;;;16.50;98.20;;;;;;4972766;28;20454;-76
2021/08/01 08:24:33;;;;;;;57.87;2.50;;;16.60;98.60;;;;;;4972513;28;20484;-76
2021/08/01 08:27:01;;;;;;;58.17;2.53;;;16.60;98.80;;;;;;4983075;28;20456;-76
2021/08/01 08:29:28;;;;;;;58.20;2.80;;;16.60;98.50;;;;;;4992035;28;20457;-76
2021/08/01 08:31:56;;;;;;;58.20;2.63;;;16.60;98.50;;;;;;4992222;28;20519;-76
2021/08/01 08:34:25;;;;;;;58.20;2.80;;;16.70;98.20;;;;;;4992043;28;20546;-76
2021/08/01 08:36:53;;;;;;;57.77;2.97;;;16.80;98.20;;;;;;4992012;28;20945;-75
2021/08/01 08:39:21;;;;;;;57.97;2.60;;;16.80;98.00;;;;;;4992306;28;20583;-75
2021/08/01 08:41:49;;;;;;;58.10;2.60;;;16.80;98.00;;;;;;4992513;28;20477;-76
2021/08/01 08:44:18;;;;;;;58.07;2.67;;;16.70;97.80;;;;;;4996243;28;20893;-75
2021/08/01 08:46:47;;;;;;;58.27;2.57;;;16.70;97.50;;;;;;4995971;28;20965;-75
2021/08/01 08:49:16;;;;;;;58.20;2.60;;;16.80;96.70;;;;;;4995927;28;20540;-75
2021/08/01 08:51:45;;;;;;;58.40;3.23;;;16.90;95.90;;;;;;4996325;28;20561;-76
2021/08/01 08:54:14;;;;;;;58.23;2.87;;;17.00;95.30;;;;;;4995836;28;20464;-74
2021/08/01 08:56:41;;;;;;;58.00;2.80;;;17.10;94.50;;;;;;4995320;28;20454;-75
2021/08/01 08:59:12;;;;;;;58.20;2.70;;;17.10;93.70;;;;;;4994105;28;20461;-74
2021/08/01 09:01:40;;;;;;;58.57;2.80;;;17.20;93.70;;;;;;4995250;28;20473;-75
2021/08/01 09:04:07;;;;;;;58.77;2.50;;;17.20;93.60;;;;;;4995307;28;20554;-74
2021/08/01 09:06:34;;;;;;;58.40;2.87;;;17.30;93.50;;;;;;4995635;28;20920;-74
2021/08/01 09:09:01;;;;;;;58.13;2.60;;;17.40;93.50;;;;;;4995392;28;20553;-74
2021/08/01 09:11:28;;;;;;;57.93;2.60;;;17.50;92.80;;;;;;4995297;28;21055;-74
2021/08/01 09:13:56;;;;;;;57.93;2.90;;;17.60;92.30;;;;;;4995415;28;20642;-74
2021/08/01 09:16:40;;;;;;;57.87;2.40;;;17.80;92.10;;;;;;4995320;28;20476;-75
2021/08/01 09:19:23;;;;;;;58.10;2.70;;;17.90;91.80;;;;;;4995177;28;20476;-74
2021/08/01 09:21:50;;;;;;;58.20;2.70;;;18.00;90.90;;;;;;4995278;28;20480;-74
2021/08/01 09:24:17;;;;;;;58.30;3.37;;;18.10;90.90;;;;;;4995672;28;21018;-73
2021/08/01 09:26:45;;;;;;;58.50;3.47;;;18.00;90.00;;;;;;4995176;28;20577;-74
2021/08/01 09:29:12;;;;;;;58.77;2.97;;;17.90;88.20;;;;;;4994691;28;20503;-74
2021/08/01 09:31:39;;;;;;;57.87;2.87;;;17.90;86.10;;;;;;4994299;28;20477;-74
2021/08/01 09:37:04;;;;;;;57.73;3.10;;;18.00;86.10;;;;;;5150999;27;20592;-74
2021/08/01 09:39:39;;;;;;;58.17;2.80;;;18.20;78.50;;;;;;5150360;27;20534;-74
2021/08/01 09:42:06;;;;;;;58.27;2.60;;;18.20;74.70;;;;;;5130238;28;20819;-74
2021/08/01 09:44:36;;;;;;;58.50;3.33;;;18.20;70.20;;;;;;5129882;28;20531;-74
2021/08/01 09:47:03;;;;;;;58.23;2.73;;;18.30;62.00;;;;;;5130036;28;20826;-73
2021/08/01 09:49:30;;;;;;;60.00;3.37;;;18.30;59.20;;;;;;5129595;28;20535;-74
2021/08/01 09:51:58;;;;;;;57.97;2.60;;;18.40;55.70;;;;;;5129607;28;20829;-73
2021/08/01 09:54:28;;;;;;;58.37;3.10;;;18.40;52.90;;;;;;5130198;28;20444;-74
2021/08/01 09:56:56;;;;;;;57.97;2.80;;;18.40;59.70;;;;;;5129690;28;20484;-73
2021/08/01 09:59:26;;;;;;;57.87;2.70;;;18.40;56.30;;;;;;5129591;28;20444;-74
2021/08/01 10:01:55;;;;;;;58.37;2.60;;;18.40;54.40;;;;;;5129477;28;21002;-74
2021/08/01 10:04:24;;;;;;;58.40;2.80;;;18.30;51.40;;;;;;5129499;28;20531;-72
2021/08/01 10:07:05;;;;;;;58.07;2.50;;;18.20;43.50;;;;;;5129598;28;20445;-73
2021/08/01 10:09:34;;;;;;;58.27;3.10;;;18.00;43.10;;;;;;5129412;28;20836;-73
2021/08/01 10:12:02;;;;;;;58.63;2.70;;;17.80;37.80;;;;;;5129543;28;20454;-73
2021/08/01 10:14:29;;;;;;;58.27;2.80;;;17.70;35.00;;;;;;5129584;28;20530;-73
2021/08/01 10:16:57;;;;;;;57.97;2.70;;;17.60;40.20;;;;;;5129353;28;21002;-74
2021/08/01 10:19:24;;;;;;;57.77;2.70;;;17.60;40.40;;;;;;5129607;28;20450;-74
2021/08/01 10:21:54;;;;;;;58.27;2.50;;;17.40;42.20;;;;;;5129579;28;20934;-73
2021/08/01 10:24:24;;;;;;;58.30;3.20;;;17.20;47.10;;;;;;5129484;28;20467;-73
2021/08/01 10:26:54;;;;;;;58.70;3.47;;;16.90;53.70;;;;;;5129560;28;20439;-74
2021/08/01 10:29:32;;;;;;;58.13;2.50;;;16.80;61.50;;;;;;5129224;28;20451;-74
2021/08/01 10:32:05;;;;;;;58.40;2.50;;;16.70;66.20;;;;;;5129484;28;20803;-74
2021/08/01 10:34:43;;;;;;;58.27;2.97;;;16.70;69.90;;;;;;5128903;28;20538;-72
2021/08/01 10:37:19;;;;;;;57.70;2.50;;;16.70;69.70;;;;;;5129287;28;20768;-72
2021/08/01 10:39:47;;;;;;;58.30;2.90;;;16.90;68.90;;;;;;5128964;28;20529;-72
2021/08/01 10:42:18;;;;;;;58.30;2.70;;;17.00;69.20;;;;;;5129237;28;20457;-72
2021/08/01 10:44:45;;;;;;;58.17;2.70;;;17.10;70.00;;;;;;5128986;28;20536;-72
2021/08/01 10:47:13;;;;;;;58.60;3.10;;;17.50;74.70;;;;;;5122069;28;20569;-72
2021/08/01 10:49:42;;;;;;;58.07;2.50;;;17.70;75.30;;;;;;5105619;28;20471;-71
2021/08/01 10:52:11;;;;;;;58.33;2.50;;;17.80;73.20;;;;;;5106552;28;20447;-72
2021/08/01 10:54:51;;;;;;;57.87;2.50;;;18.20;72.20;;;;;;5098976;28;20812;-72
2021/08/01 10:57:21;;;;;;;58.30;2.70;;;18.50;71.00;;;;;;5094808;28;20486;-72
2021/08/01 11:00:10;;;;;;;58.60;3.07;;;18.90;63.50;;;;;;5094593;28;20452;-72
2021/08/01 11:02:37;;;;;;;57.83;2.40;;;19.10;38.90;;;;;;5094739;28;20822;-73
2021/08/01 11:05:38;;;;;;;58.10;2.50;;;19.00;4.00;;;;;;5095100;28;20450;-73
2021/08/01 11:08:06;;;;;;;57.90;2.50;;;18.90;1.00;;;;;;5095218;28;20503;-73
2021/08/01 11:10:33;;;;;;;58.07;2.60;;;19.10;1.00;;;;;;5095238;28;20459;-73
2021/08/01 11:13:38;;;;;;;58.30;2.90;;;19.30;1.00;;;;;;5095824;28;20882;-73
2021/08/01 11:16:08;;;;;;;57.97;2.53;;;19.50;1.00;;;;;;5092343;28;20482;-73
2021/08/01 11:18:36;;;;;;;57.87;2.60;;;19.60;1.00;;;;;;5094489;28;20451;-73
2021/08/01 11:21:06;;;;;;;58.20;2.53;;;19.70;1.00;;;;;;5093840;28;20474;-73
2021/08/01 11:24:05;;;;;;;57.77;2.87;;;19.70;1.00;;;;;;5094423;28;20538;-73
2021/08/01 11:26:32;;;;;;;57.30;2.60;;;19.50;1.00;;;;;;5094461;28;20446;-73
2021/08/01 11:29:08;;;;;;;57.57;2.53;;;19.20;1.00;;;;;;5094217;28;20451;-74
2021/08/01 11:31:36;;;;;;;57.70;2.60;;;19.00;1.00;;;;;;5094022;28;20474;-74
2021/08/01 11:34:22;;;;;;;57.47;2.60;;;19.10;1.00;;;;;;5093901;28;21028;-73
2021/08/01 11:36:50;;;;;;;58.17;2.30;;;19.10;1.00;;;;;;5093948;28;20493;-73
2021/08/01 11:39:17;;;;;;;58.97;2.73;;;19.30;1.00;;;;;;5093813;28;20451;-73
2021/08/01 11:41:48;;;;;;;58.30;2.33;;;19.50;1.00;;;;;;5093736;28;20468;-72
2021/08/01 11:44:21;;;;;;;57.60;2.50;;;19.80;1.00;;;;;;5093847;28;20545;-73
2021/08/01 11:47:09;;;;;;;58.37;2.90;;;19.90;1.00;;;;;;5093637;28;20448;-74
2021/08/01 11:49:50;;;;;;;58.07;2.30;;;20.00;1.00;;;;;;5093503;28;20446;-73
2021/08/01 11:52:31;;;;;;;58.10;2.43;;;20.30;1.00;;;;;;5093980;28;20438;-71
2021/08/01 11:54:59;;;;;;;58.00;2.50;;;20.70;1.00;;;;;;5093465;28;20447;-73
2021/08/01 11:57:29;;;;;;;58.20;2.50;;;21.00;1.00;;;;;;5093543;28;20490;-73
2021/08/01 11:59:57;;;;;;;58.80;3.73;;;21.30;1.00;;;;;;5092228;28;20515;-73
2021/08/01 12:02:25;;;;;;;57.83;2.50;;;21.70;1.00;;;;;;5093368;28;20496;-73
2021/08/01 12:04:54;;;;;;;58.10;2.40;;;22.20;1.00;;;;;;5093332;28;20952;-73
2021/08/01 12:07:22;;;;;;;58.30;2.77;;;22.10;1.00;;;;;;5093293;28;20453;-72
2021/08/01 12:09:49;;;;;;;58.10;2.40;;;22.00;1.00;;;;;;5093119;28;20478;-72
2021/08/01 12:12:27;;;;;;;57.57;2.23;;;21.90;1.00;;;;;;5093308;28;20537;-73
2021/08/01 12:14:57;;;;;;;58.20;2.80;;;21.80;1.00;;;;;;5093208;28;20952;-73
2021/08/01 12:17:23;;;;;;;58.90;2.50;;;21.60;1.00;;;;;;5092919;28;21050;-73
2021/08/01 12:19:52;;;;;;;58.17;2.50;;;21.40;1.00;;;;;;5092403;28;20483;-73
2021/08/01 12:22:21;;;;;;;58.07;2.53;;;21.40;1.00;;;;;;5093178;28;20443;-73
2021/08/01 12:24:49;;;;;;;57.83;2.30;;;21.60;1.00;;;;;;5092997;28;21040;-72
2021/08/01 12:27:18;;;;;;;58.80;3.23;;;22.20;1.00;;;;;;5092899;28;20536;-73
2021/08/01 12:29:46;;;;;;;58.30;2.43;;;23.00;1.00;;;;;;5092512;28;20454;-72
2021/08/01 12:32:26;;;;;;;58.10;2.70;;;23.20;1.00;;;;;;5092627;28;20609;-72
2021/08/01 12:35:02;;;;;;;57.87;2.30;;;23.60;1.00;;;;;;5092881;28;20463;-73
2021/08/01 12:37:30;;;;;;;57.73;2.20;;;23.80;1.00;;;;;;5092880;28;20574;-73
2021/08/01 12:39:57;;;;;;;58.00;2.40;;;23.80;1.00;;;;;;5092275;28;20472;-73
2021/08/01 12:42:25;;;;;;;58.70;2.70;;;24.10;1.00;;;;;;5092509;28;20547;-73
2021/08/01 12:44:57;;;;;;;58.10;2.30;;;24.00;1.00;;;;;;5092508;28;20451;-73
2021/08/01 12:47:27;;;;;;;58.00;2.50;;;23.40;1.00;;;;;;5092901;28;20450;-73
2021/08/01 12:49:55;;;;;;;57.80;2.30;;;22.90;1.00;;;;;;5092456;28;20845;-73